Time;durP1;ratioP1;P1;durP2;ratioP2;P2;SDS_P1;SDS_P2;PMS_P1;PMS_P2;Temp;Humidity;BMP_temperature;BMP_pressure;BME280_temperature;BME280_humidity;BME280_pressure;Samples;Min_cycle;Max_cycle;Signal;HPM_P1;HPM_P2
2022/09/06 00:02:05;;;;;;;;;;;;;;;;;;5030057;28;19944;-90
2022/09/06 00:04:30;;;;;;;;;;;;;;;;;;5025002;28;19913;-90
2022/09/06 00:06:55;;;;;;;;;;;;;;;;;;5006529;28;19917;-90
2022/09/06 00:09:20;;;;;;;;;;;;;;;;;;5036967;28;19913;-90
2022/09/06 00:11:46;;;;;;;;;;;;;;;;;;5020045;28;19913;-90
2022/09/06 00:14:11;;;;;;;;;;;;;;;;;;5001720;28;20000;-75
2022/09/06 00:16:39;;;;;;;;;;;;;;;;;;5017399;28;19917;-75
2022/09/06 00:19:04;;;;;;;;;;;;;;;;;;5033734;28;19913;-76
2022/09/06 00:21:30;;;;;;;;;;;;;;;;;;5034870;28;20295;-76
2022/09/06 00:23:55;;;;;;;;;;;;;;;;;;5033067;28;19959;-76
2022/09/06 00:26:20;;;;;;;;;;;;;;;;;;5033694;28;20352;-77
2022/09/06 00:28:46;;;;;;;;;;;;;;;;;;5034908;28;19909;-75
2022/09/06 00:31:11;;;;;;;;;;;;;;;;;;5034789;28;19917;-76
2022/09/06 00:33:36;;;;;;;;;;;;;;;;;;5034627;28;19913;-77
2022/09/06 00:36:02;;;;;;;;;;;;;;;;;;5033617;28;20368;-76
2022/09/06 00:38:27;;;;;;;;;;;;;;;;;;5033426;28;20331;-75
2022/09/06 00:40:52;;;;;;;;;;;;;;;;;;5034431;28;19926;-75
2022/09/06 00:43:18;;;;;;;;;;;;;;;;;;5034465;28;19917;-76
2022/09/06 00:45:43;;;;;;;;;;;;;;;;;;5034467;28;19924;-77
2022/09/06 00:48:08;;;;;;;;;;;;;;;;;;5034431;28;19913;-75
2022/09/06 00:50:34;;;;;;;;;;;;;;;;;;5012765;28;19948;-75
2022/09/06 00:52:59;;;;;;;;;;;;;;;;;;5014434;28;19914;-77
2022/09/06 00:55:25;;;;;;;;;;;;;;;;;;5014642;28;20301;-76
2022/09/06 00:57:50;;;;;;;;;;;;;;;;;;5014505;28;20285;-76
2022/09/06 01:00:16;;;;;;;;;;;;;;;;;;5013279;28;19964;-77
2022/09/06 01:02:41;;;;;;;;;;;;;;;;;;5014437;28;20400;-77
2022/09/06 01:05:07;;;;;;;;;;;;;;;;;;4996885;28;19913;-76
2022/09/06 01:07:32;;;;;;;;;;;;;;;;;;5023781;28;19913;-77
2022/09/06 01:09:57;;;;;;;;;;;;;;;;;;5033971;28;19952;-76
2022/09/06 01:12:23;;;;;;;;;;;;;;;;;;5033956;28;19913;-76
2022/09/06 01:14:48;;;;;;;;;;;;;;;;;;5034033;28;19967;-77
2022/09/06 01:17:13;;;;;;;;;;;;;;;;;;5034046;28;20364;-76
2022/09/06 01:19:39;;;;;;;;;;;;;;;;;;5032881;28;20388;-77
2022/09/06 01:22:04;;;;;;;;;;;;;;;;;;5032624;28;20008;-76
2022/09/06 01:24:30;;;;;;;;;;;;;;;;;;5031801;28;19913;-77
2022/09/06 01:26:55;;;;;;;;;;;;;;;;;;5016032;28;20277;-76
2022/09/06 01:29:20;;;;;;;;;;;;;;;;;;5033738;28;19919;-75
2022/09/06 01:31:46;;;;;;;;;;;;;;;;;;5033621;28;19917;-76
2022/09/06 01:34:11;;;;;;;;;;;;;;;;;;5032380;28;19924;-77
2022/09/06 01:36:36;;;;;;;;;;;;;;;;;;5032627;28;19913;-76
2022/09/06 01:39:02;;;;;;;;;;;;;;;;;;5032216;28;19917;-75
2022/09/06 01:41:27;;;;;;;;;;;;;;;;;;5032636;28;19920;-77
2022/09/06 01:43:52;;;;;;;;;;;;;;;;;;5015792;28;19921;-77
2022/09/06 01:46:18;;;;;;;;;;;;;;;;;;5032127;28;19917;-76
2022/09/06 01:48:43;;;;;;;;;;;;;;;;;;5032103;28;20335;-76
2022/09/06 01:51:09;;;;;;;;;;;;;;;;;;5032173;28;19963;-77
2022/09/06 01:53:34;;;;;;;;;;;;;;;;;;5032081;28;20382;-76
2022/09/06 01:56:00;;;;;;;;;;;;;;;;;;5031282;28;19944;-78
2022/09/06 01:58:25;;;;;;;;;;;;;;;;;;5033327;28;19939;-77
2022/09/06 02:00:51;;;;;;;;;;;;;;;;;;5033267;28;20292;-77
2022/09/06 02:03:17;;;;;;;;;;;;;;;;;;5033140;28;20000;-78
2022/09/06 02:05:42;;;;;;;;;;;;;;;;;;5032949;28;20409;-76
2022/09/06 02:08:07;;;;;;;;;;;;;;;;;;5033057;28;19920;-76
2022/09/06 02:10:33;;;;;;;;;;;;;;;;;;5032849;28;19917;-76
2022/09/06 02:12:59;;;;;;;;;;;;;;;;;;5031906;28;20004;-76
2022/09/06 02:15:24;;;;;;;;;;;;;;;;;;5031637;28;20016;-77
2022/09/06 02:17:49;;;;;;;;;;;;;;;;;;5032911;28;19952;-76
2022/09/06 02:20:15;;;;;;;;;;;;;;;;;;5032750;28;19914;-76
2022/09/06 02:22:40;;;;;;;;;;;;;;;;;;5032689;28;19913;-75
2022/09/06 02:25:05;;;;;;;;;;;;;;;;;;5032713;28;19920;-76
2022/09/06 02:27:31;;;;;;;;;;;;;;;;;;5032231;28;19913;-75
2022/09/06 02:29:56;;;;;;;;;;;;;;;;;;5031440;28;20011;-77
2022/09/06 02:32:21;;;;;;;;;;;;;;;;;;5015101;28;19975;-76
2022/09/06 02:34:47;;;;;;;;;;;;;;;;;;5031610;28;19914;-76
2022/09/06 02:37:12;;;;;;;;;;;;;;;;;;5031405;28;19949;-77
2022/09/06 02:39:37;;;;;;;;;;;;;;;;;;5031622;28;20403;-75
2022/09/06 02:42:03;;;;;;;;;;;;;;;;;;5014249;28;20336;-76
2022/09/06 02:44:29;;;;;;;;;;;;;;;;;;5032421;28;19912;-75
2022/09/06 02:46:54;;;;;;;;;;;;;;;;;;5014434;28;20004;-76
2022/09/06 02:49:19;;;;;;;;;;;;;;;;;;5031286;28;20296;-77
2022/09/06 02:51:45;;;;;;;;;;;;;;;;;;5032139;28;20000;-75
2022/09/06 02:54:10;;;;;;;;;;;;;;;;;;5030874;28;19996;-76
2022/09/06 02:56:35;;;;;;;;;;;;;;;;;;5032338;28;19998;-76
2022/09/06 02:59:01;;;;;;;;;;;;;;;;;;5032356;28;19984;-77
2022/09/06 03:01:26;;;;;;;;;;;;;;;;;;5014570;28;20377;-76
2022/09/06 03:03:51;;;;;;;;;;;;;;;;;;5011278;28;19944;-75
2022/09/06 03:06:17;;;;;;;;;;;;;;;;;;5027611;28;19917;-77
2022/09/06 03:08:42;;;;;;;;;;;;;;;;;;5012443;28;19920;-76
2022/09/06 03:11:07;;;;;;;;;;;;;;;;;;5011418;28;19913;-77
2022/09/06 03:13:33;;;;;;;;;;;;;;;;;;5012276;28;20092;-78
2022/09/06 03:15:58;;;;;;;;;;;;;;;;;;5022953;28;19975;-76
2022/09/06 03:18:23;;;;;;;;;;;;;;;;;;5030769;28;19993;-76
2022/09/06 03:20:49;;;;;;;;;;;;;;;;;;5032088;28;19920;-76
2022/09/06 03:23:14;;;;;;;;;;;;;;;;;;5031690;28;20423;-75
2022/09/06 03:25:39;;;;;;;;;;;;;;;;;;5030787;28;20304;-77
2022/09/06 03:28:05;;;;;;;;;;;;;;;;;;5031886;28;20277;-76
2022/09/06 03:30:30;;;;;;;;;;;;;;;;;;5031842;28;19913;-77
2022/09/06 03:32:55;;;;;;;;;;;;;;;;;;5013236;28;20343;-77
2022/09/06 03:35:21;;;;;;;;;;;;;;;;;;5030678;28;19979;-75
2022/09/06 03:37:46;;;;;;;;;;;;;;;;;;5031658;28;19913;-76
2022/09/06 03:40:11;;;;;;;;;;;;;;;;;;5014035;28;19913;-76
2022/09/06 03:42:37;;;;;;;;;;;;;;;;;;5031668;28;19979;-76
2022/09/06 03:45:02;;;;;;;;;;;;;;;;;;4997787;28;20292;-77
2022/09/06 03:47:27;;;;;;;;;;;;;;;;;;5031999;28;19967;-75
2022/09/06 03:49:53;;;;;;;;;;;;;;;;;;5031009;28;20299;-75
2022/09/06 03:52:18;;;;;;;;;;;;;;;;;;5031660;28;19913;-76
2022/09/06 03:54:43;;;;;;;;;;;;;;;;;;5031628;28;19913;-75
2022/09/06 03:57:09;;;;;;;;;;;;;;;;;;5030447;28;19909;-76
2022/09/06 03:59:34;;;;;;;;;;;;;;;;;;4999802;28;19913;-76
2022/09/06 04:01:59;;;;;;;;;;;;;;;;;;5034050;28;20376;-75
2022/09/06 04:04:25;;;;;;;;;;;;;;;;;;5033574;28;19913;-76
2022/09/06 04:06:50;;;;;;;;;;;;;;;;;;5034202;28;19917;-76
2022/09/06 04:09:15;;;;;;;;;;;;;;;;;;5015304;28;19918;-76
2022/09/06 04:11:41;;;;;;;;;;;;;;;;;;5030772;28;20446;-77
2022/09/06 04:14:06;;;;;;;;;;;;;;;;;;5015073;28;20392;-77
2022/09/06 04:16:32;;;;;;;;;;;;;;;;;;5030484;28;20395;-76
2022/09/06 04:18:59;;;;;;;;;;;;;;;;;;5015190;28;20442;-76
2022/09/06 04:21:24;;;;;;;;;;;;;;;;;;5015092;28;19919;-76
2022/09/06 04:23:50;;;;;;;;;;;;;;;;;;5026777;28;19913;-76
2022/09/06 04:26:16;;;;;;;;;;;;;;;;;;5034606;28;19917;-76
2022/09/06 04:28:41;;;;;;;;;;;;;;;;;;5034746;28;20679;-76
2022/09/06 04:31:06;;;;;;;;;;;;;;;;;;5034587;28;19913;-77
2022/09/06 04:33:32;;;;;;;;;;;;;;;;;;5033170;28;20340;-76
2022/09/06 04:35:57;;;;;;;;;;;;;;;;;;5034584;28;19917;-77
2022/09/06 04:38:23;;;;;;;;;;;;;;;;;;5034386;28;19917;-76
2022/09/06 04:40:48;;;;;;;;;;;;;;;;;;5033463;28;19920;-76
2022/09/06 04:43:13;;;;;;;;;;;;;;;;;;5034264;28;19913;-77
2022/09/06 04:45:39;;;;;;;;;;;;;;;;;;5032902;28;19941;-76
2022/09/06 04:48:04;;;;;;;;;;;;;;;;;;5034203;28;19913;-75
2022/09/06 04:50:29;;;;;;;;;;;;;;;;;;5043839;22;19913;-80
2022/09/06 04:53:03;;;;;;;;;;;;;;;;;;5017182;28;20304;-79
2022/09/06 04:55:30;;;;;;;;;;;;;;;;;;5033000;28;19913;-80
2022/09/06 04:57:57;;;;;;;;;;;;;;;;;;5033424;28;19959;-80
2022/09/06 05:00:22;;;;;;;;;;;;;;;;;;5034054;28;20396;-81
2022/09/06 05:02:47;;;;;;;;;;;;;;;;;;5032716;28;19964;-80
2022/09/06 05:05:13;;;;;;;;;;;;;;;;;;5033618;28;20015;-80
2022/09/06 05:07:38;;;;;;;;;;;;;;;;;;5032988;28;19913;-79
2022/09/06 05:10:04;;;;;;;;;;;;;;;;;;5032620;28;20282;-79
2022/09/06 05:12:30;;;;;;;;;;;;;;;;;;5034705;28;19920;-80
2022/09/06 05:14:55;;;;;;;;;;;;;;;;;;5032987;28;19913;-79
2022/09/06 05:17:21;;;;;;;;;;;;;;;;;;5034349;28;19913;-81
2022/09/06 05:19:47;;;;;;;;;;;;;;;;;;5032678;28;19920;-80
2022/09/06 05:22:12;;;;;;;;;;;;;;;;;;5034115;28;19914;-80
2022/09/06 05:24:38;;;;;;;;;;;;;;;;;;5031897;28;19971;-80
2022/09/06 05:27:04;;;;;;;;;;;;;;;;;;5033169;28;20309;-80
2022/09/06 05:29:29;;;;;;;;;;;;;;;;;;5033454;28;19913;-79
2022/09/06 05:31:54;;;;;;;;;;;;;;;;;;5032204;28;20005;-80
2022/09/06 05:34:20;;;;;;;;;;;;;;;;;;5031787;28;19967;-81
2022/09/06 05:36:45;;;;;;;;;;;;;;;;;;5032178;28;19913;-81
2022/09/06 05:39:10;;;;;;;;;;;;;;;;;;5031926;28;19913;-81
2022/09/06 05:41:36;;;;;;;;;;;;;;;;;;5032713;28;19914;-82
2022/09/06 05:44:01;;;;;;;;;;;;;;;;;;5031803;28;19913;-81
2022/09/06 05:46:26;;;;;;;;;;;;;;;;;;5031574;28;20364;-81
2022/09/06 05:48:52;;;;;;;;;;;;;;;;;;5032647;28;19920;-81
2022/09/06 05:51:17;;;;;;;;;;;;;;;;;;5032583;28;19928;-81
2022/09/06 05:53:42;;;;;;;;;;;;;;;;;;5032408;28;19983;-80
2022/09/06 05:56:08;;;;;;;;;;;;;;;;;;5032839;28;19920;-77
2022/09/06 05:58:33;;;;;;;;;;;;;;;;;;5015204;28;19919;-76
2022/09/06 06:00:59;;;;;;;;;;;;;;;;;;5031252;28;19993;-78
2022/09/06 06:03:24;;;;;;;;;;;;;;;;;;5030379;28;19936;-78
2022/09/06 06:05:49;;;;;;;;;;;;;;;;;;5014813;28;19963;-77
2022/09/06 06:08:14;;;;;;;;;;;;;;;;;;5032290;28;20016;-78
2022/09/06 06:10:42;;;;;;;;;;;;;;;;;;5031611;28;20557;-78
2022/09/06 06:13:07;;;;;;;;;;;;;;;;;;5032183;28;20406;-79
2022/09/06 06:15:32;;;;;;;;;;;;;;;;;;5030974;28;19920;-79
2022/09/06 06:17:58;;;;;;;;;;;;;;;;;;4998512;28;19963;-80
2022/09/06 06:20:23;;;;;;;;;;;;;;;;;;5030331;28;20369;-80
2022/09/06 06:22:49;;;;;;;;;;;;;;;;;;5032049;28;19914;-80
2022/09/06 06:25:14;;;;;;;;;;;;;;;;;;5032339;28;19953;-79
2022/09/06 06:27:40;;;;;;;;;;;;;;;;;;5030781;28;20403;-79
2022/09/06 06:30:05;;;;;;;;;;;;;;;;;;5032573;28;20388;-79
2022/09/06 06:32:30;;;;;;;;;;;;;;;;;;5031352;28;20016;-82
2022/09/06 06:34:56;;;;;;;;;;;;;;;;;;5022661;28;20004;-81
2022/09/06 06:37:21;;;;;;;;;;;;;;;;;;5012595;28;19955;-78
2022/09/06 06:39:46;;;;;;;;;;;;;;;;;;5012894;28;20022;-79
2022/09/06 06:42:12;;;;;;;;;;;;;;;;;;5027428;28;19914;-80
2022/09/06 06:44:48;;;;;;;;;;;;;;;;;;4994425;28;19965;-80
2022/09/06 06:47:13;;;;;;;;;;;;;;;;;;5011368;28;19921;-80
2022/09/06 06:49:39;;;;;;;;;;;;;;;;;;5012063;28;20377;-79
2022/09/06 06:52:04;;;;;;;;;;;;;;;;;;5010981;28;19918;-78
2022/09/06 06:54:29;;;;;;;;;;;;;;;;;;5010809;28;19920;-79
2022/09/06 06:56:55;;;;;;;;;;;;;;;;;;5027345;28;19933;-78
2022/09/06 06:59:20;;;;;;;;;;;;;;;;;;5012027;28;19956;-78
2022/09/06 07:01:45;;;;;;;;;;;;;;;;;;5012524;28;19944;-79
2022/09/06 07:04:13;;;;;;;;;;;;;;;;;;5011921;28;19914;-78
2022/09/06 07:06:38;;;;;;;;;;;;;;;;;;5017076;28;19921;-78
2022/09/06 07:09:03;;;;;;;;;;;;;;;;;;5031758;28;20416;-78
2022/09/06 07:11:28;;;;;;;;;;;;;;;;;;5030282;28;20372;-78
2022/09/06 07:13:54;;;;;;;;;;;;;;;;;;5030063;28;20300;-77
2022/09/06 07:16:19;;;;;;;;;;;;;;;;;;5029988;28;20023;-77
2022/09/06 07:18:45;;;;;;;;;;;;;;;;;;5031715;28;20329;-78
2022/09/06 07:21:11;;;;;;;;;;;;;;;;;;5030520;28;19913;-79
2022/09/06 07:23:36;;;;;;;;;;;;;;;;;;5013690;28;19913;-78
2022/09/06 07:26:01;;;;;;;;;;;;;;;;;;5031385;28;19917;-78
2022/09/06 07:28:27;;;;;;;;;;;;;;;;;;5031843;28;19948;-76
2022/09/06 07:30:53;;;;;;;;;;;;;;;;;;5031493;28;19917;-77
2022/09/06 07:33:18;;;;;;;;;;;;;;;;;;5029695;28;19917;-79
2022/09/06 07:35:44;;;;;;;;;;;;;;;;;;5035365;28;20388;-78
2022/09/06 07:38:09;;;;;;;;;;;;;;;;;;5034545;28;19913;-79
2022/09/06 07:40:35;;;;;;;;;;;;;;;;;;5034269;28;20002;-78
2022/09/06 07:43:00;;;;;;;;;;;;;;;;;;5034180;28;19921;-77
2022/09/06 07:45:25;;;;;;;;;;;;;;;;;;5035369;28;20384;-79
2022/09/06 07:47:50;;;;;;;;;;;;;;;;;;5034049;28;19913;-78
2022/09/06 07:50:16;;;;;;;;;;;;;;;;;;5034085;28;19913;-77
2022/09/06 07:52:41;;;;;;;;;;;;;;;;;;5035081;28;20335;-77
2022/09/06 07:55:06;;;;;;;;;;;;;;;;;;5035469;28;19944;-78
2022/09/06 07:57:32;;;;;;;;;;;;;;;;;;5035361;28;19920;-78
2022/09/06 07:59:57;;;;;;;;;;;;;;;;;;5034499;28;20367;-78
2022/09/06 08:02:22;;;;;;;;;;;;;;;;;;5035429;28;19917;-79
2022/09/06 08:04:48;;;;;;;;;;;;;;;;;;5035437;28;19917;-80
2022/09/06 08:07:13;;;;;;;;;;;;;;;;;;5033822;28;20406;-79
2022/09/06 08:09:39;;;;;;;;;;;;;;;;;;5034030;28;19913;-78
2022/09/06 08:12:08;;;;;;;;;;;;;;;;;;5017193;28;19912;-77
2022/09/06 08:14:33;;;;;;;;;;;;;;;;;;5034738;28;20007;-79
2022/09/06 08:16:59;;;;;;;;;;;;;;;;;;5034711;28;20014;-78
2022/09/06 08:19:24;;;;;;;;;;;;;;;;;;5034684;28;19919;-78
2022/09/06 08:21:49;;;;;;;;;;;;;;;;;;5033422;28;19913;-79
2022/09/06 08:24:15;;;;;;;;;;;;;;;;;;5034598;28;20253;-79
2022/09/06 08:26:43;;;;;;;;;;;;;;;;;;5024342;28;20392;-78
2022/09/06 08:29:09;;;;;;;;;;;;;;;;;;5033524;28;19917;-77
2022/09/06 08:31:34;;;;;;;;;;;;;;;;;;5033597;28;19916;-78
2022/09/06 08:34:00;;;;;;;;;;;;;;;;;;5033522;28;19913;-77
2022/09/06 08:36:28;;;;;;;;;;;;;;;;;;5035193;28;20384;-79
2022/09/06 08:38:53;;;;;;;;;;;;;;;;;;5034447;28;19920;-79
2022/09/06 08:41:18;;;;;;;;;;;;;;;;;;5034948;28;19988;-79
2022/09/06 08:43:44;;;;;;;;;;;;;;;;;;5032802;28;20463;-78
2022/09/06 08:46:09;;;;;;;;;;;;;;;;;;5034300;28;19924;-80
2022/09/06 08:48:37;;;;;;;;;;;;;;;;;;5016827;28;20008;-77
2022/09/06 08:51:02;;;;;;;;;;;;;;;;;;5033212;28;20032;-76
2022/09/06 08:53:27;;;;;;;;;;;;;;;;;;5034395;28;20012;-83
2022/09/06 08:55:53;;;;;;;;;;;;;;;;;;5034184;28;19913;-85
2022/09/06 08:58:19;;;;;;;;;;;;;;;;;;5034194;28;19913;-84
2022/09/06 09:00:44;;;;;;;;;;;;;;;;;;5040873;28;19913;-82
2022/09/06 09:03:09;;;;;;;;;;;;;;;;;;5025751;28;19917;-82
2022/09/06 09:05:35;;;;;;;;;;;;;;;;;;5044083;28;19971;-82
2022/09/06 09:08:00;;;;;;;;;;;;;;;;;;5027554;28;19913;-82
2022/09/06 09:10:25;;;;;;;;;;;;;;;;;;5051768;28;19917;-81
2022/09/06 09:12:51;;;;;;;;;;;;;;;;;;5052182;28;19959;-82
2022/09/06 09:15:16;;;;;;;;;;;;;;;;;;5052657;28;19913;-82
2022/09/06 09:17:41;;;;;;;;;;;;;;;;;;5053099;28;19914;-84
2022/09/06 09:20:10;;;;;;;;;;;;;;;;;;5053569;28;19914;-83
2022/09/06 09:22:35;;;;;;;;;;;;;;;;;;5014185;28;20063;-83
2022/09/06 09:25:01;;;;;;;;;;;;;;;;;;5037465;28;20372;-85
2022/09/06 09:27:26;;;;;;;;;;;;;;;;;;5034997;28;19960;-83
2022/09/06 09:29:52;;;;;;;;;;;;;;;;;;5036692;28;19913;-83
2022/09/06 09:32:17;;;;;;;;;;;;;;;;;;5034893;28;20387;-84
2022/09/06 09:34:42;;;;;;;;;;;;;;;;;;5033370;28;19921;-83
2022/09/06 09:37:08;;;;;;;;;;;;;;;;;;5033829;28;19924;-84
2022/09/06 09:39:33;;;;;;;;;;;;;;;;;;5033454;28;20434;-83
2022/09/06 09:41:58;;;;;;;;;;;;;;;;;;5033014;28;19909;-84
2022/09/06 09:44:27;;;;;;;;;;;;;;;;;;5032044;28;20300;-83
2022/09/06 09:46:53;;;;;;;;;;;;;;;;;;5031902;28;19921;-84
2022/09/06 09:49:18;;;;;;;;;;;;;;;;;;5032814;28;19920;-84
2022/09/06 09:51:44;;;;;;;;;;;;;;;;;;5015301;28;19957;-84
2022/09/06 09:54:09;;;;;;;;;;;;;;;;;;5032053;28;19948;-83
2022/09/06 09:56:34;;;;;;;;;;;;;;;;;;5031044;28;20292;-84
2022/09/06 09:59:00;;;;;;;;;;;;;;;;;;5032932;28;19913;-84
2022/09/06 10:01:25;;;;;;;;;;;;;;;;;;5015647;28;19967;-84
2022/09/06 10:03:51;;;;;;;;;;;;;;;;;;5030148;28;19993;-83
2022/09/06 10:06:16;;;;;;;;;;;;;;;;;;5028284;28;19937;-83
2022/09/06 10:08:42;;;;;;;;;;;;;;;;;;5028307;28;19920;-81
2022/09/06 10:11:07;;;;;;;;;;;;;;;;;;5012848;28;19916;-82
2022/09/06 10:13:33;;;;;;;;;;;;;;;;;;5012603;28;19924;-84
2022/09/06 10:15:58;;;;;;;;;;;;;;;;;;5013373;28;19943;-86
2022/09/06 10:18:23;;;;;;;;;;;;;;;;;;5012375;28;19910;-84
2022/09/06 10:20:49;;;;;;;;;;;;;;;;;;5015802;28;19920;-83
2022/09/06 10:23:14;;;;;;;;;;;;;;;;;;5011684;28;19914;-83
2022/09/06 10:25:40;;;;;;;;;;;;;;;;;;5011482;28;19927;-85
2022/09/06 10:28:05;;;;;;;;;;;;;;;;;;5028320;28;20355;-85
2022/09/06 10:30:31;;;;;;;;;;;;;;;;;;5028404;28;20373;-79
2022/09/06 10:32:57;;;;;;;;;;;;;;;;;;5012458;28;20005;-76
2022/09/06 10:35:22;;;;;;;;;;;;;;;;;;5013105;28;19953;-85
2022/09/06 10:37:48;;;;;;;;;;;;;;;;;;5047376;28;19921;-85
2022/09/06 10:40:13;;;;;;;;;;;;;;;;;;5032264;28;19913;-84
2022/09/06 10:42:39;;;;;;;;;;;;;;;;;;5036347;28;20499;-83
2022/09/06 10:45:04;;;;;;;;;;;;;;;;;;5036018;28;19913;-83
2022/09/06 10:47:29;;;;;;;;;;;;;;;;;;5033301;28;19999;-83
2022/09/06 10:49:55;;;;;;;;;;;;;;;;;;5015961;28;19909;-83
2022/09/06 10:52:20;;;;;;;;;;;;;;;;;;5029247;28;19917;-87
2022/09/06 10:54:46;;;;;;;;;;;;;;;;;;5030766;28;19920;-82
2022/09/06 10:57:11;;;;;;;;;;;;;;;;;;5013919;28;19917;-78
2022/09/06 11:18:31;;;;;;;;;;;;;;;;;;5588372;23;20342;-79
2022/09/06 11:20:56;;;;;;;;;;;;;;;;;;5016587;28;19923;-80
2022/09/06 11:23:21;;;;;;;;;;;;;;;;;;5018500;28;20395;-81
2022/09/06 11:25:47;;;;;;;;;;;;;;;;;;5018538;28;20422;-81
2022/09/06 11:28:12;;;;;;;;;;;;;;;;;;5018090;28;20338;-81
2022/09/06 11:30:38;;;;;;;;;;;;;;;;;;5018698;28;20335;-86
2022/09/06 11:33:03;;;;;;;;;;;;;;;;;;5013399;22;19930;-85
2022/09/06 11:35:31;;;;;;;;;;;;;;;;;;4966606;28;20009;-87
2022/09/06 11:37:56;;;;;;;;;;;;;;;;;;4966851;28;19918;-86
2022/09/06 11:40:25;;;;;;;;;;;;;;;;;;4966475;28;19920;-88
2022/09/06 11:42:53;;;;;;;;;;;;;;;;;;4963496;28;19920;-88
2022/09/06 11:45:22;;;;;;;;;;;;;;;;;;4964278;28;19922;-89
2022/09/06 11:47:47;;;;;;;;;;;;;;;;;;4966894;28;19914;-90
2022/09/06 11:50:13;;;;;;;;;;;;;;;;;;4982733;28;19938;-87
2022/09/06 11:52:38;;;;;;;;;;;;;;;;;;4996954;28;19914;-88
2022/09/06 11:55:04;;;;;;;;;;;;;;;;;;4980502;28;19960;-88
2022/09/06 11:57:30;;;;;;;;;;;;;;;;;;4964179;28;19984;-89
2022/09/06 11:59:59;;;;;;;;;;;;;;;;;;4965002;28;19914;-89
2022/09/06 12:02:25;;;;;;;;;;;;;;;;;;4984653;28;20108;-88
2022/09/06 12:04:53;;;;;;;;;;;;;;;;;;4987539;28;19972;-88
2022/09/06 12:07:19;;;;;;;;;;;;;;;;;;4983163;28;19956;-90
2022/09/06 12:09:45;;;;;;;;;;;;;;;;;;4966231;28;19918;-89
2022/09/06 12:12:11;;;;;;;;;;;;;;;;;;4996233;28;19914;-87
2022/09/06 12:14:39;;;;;;;;;;;;;;;;;;4963721;28;19956;-85
2022/09/06 12:17:06;;;;;;;;;;;;;;;;;;4984519;28;19981;-89
2022/09/06 12:19:32;;;;;;;;;;;;;;;;;;4969436;28;19915;-87
2022/09/06 12:21:57;;;;;;;;;;;;;;;;;;4967733;28;19941;-86
2022/09/06 12:24:26;;;;;;;;;;;;;;;;;;4984693;28;19914;-88
2022/09/06 12:26:53;;;;;;;;;;;;;;;;;;4971978;28;19918;-89
2022/09/06 12:29:24;;;;;;;;;;;;;;;;;;4985277;28;20065;-89
2022/09/06 12:31:51;;;;;;;;;;;;;;;;;;4958373;28;19977;-77
2022/09/06 12:34:16;;;;;;;;;;;;;;;;;;4953895;28;19915;-76
2022/09/06 12:36:42;;;;;;;;;;;;;;;;;;4955398;28;19921;-76
2022/09/06 12:39:07;;;;;;;;;;;;;;;;;;4973770;28;19921;-76
2022/09/06 12:41:33;;;;;;;;;;;;;;;;;;4957432;28;19914;-77
2022/09/06 12:43:58;;;;;;;;;;;;;;;;;;4973970;28;19914;-77
2022/09/06 12:46:24;;;;;;;;;;;;;;;;;;4989852;28;19973;-77
2022/09/06 12:48:50;;;;;;;;;;;;;;;;;;4990081;28;19917;-77
2022/09/06 12:51:18;;;;;;;;;;;;;;;;;;4989298;28;19914;-77
2022/09/06 12:53:43;;;;;;;;;;;;;;;;;;4974210;28;19969;-77
2022/09/06 12:56:10;;;;;;;;;;;;;;;;;;4968042;28;19918;-76
2022/09/06 12:58:37;;;;;;;;;;;;;;;;;;4954294;29;19989;-76
2022/09/06 13:01:03;;;;;;;;;;;;;;;;;;4938572;28;19981;-78
2022/09/06 13:03:29;;;;;;;;;;;;;;;;;;4970368;28;19914;-77
2022/09/06 13:05:54;;;;;;;;;;;;;;;;;;4954265;28;19926;-76
2022/09/06 13:08:20;;;;;;;;;;;;;;;;;;4955487;28;19997;-76
2022/09/06 13:10:46;;;;;;;;;;;;;;;;;;4955431;28;19916;-77
2022/09/06 13:13:11;;;;;;;;;;;;;;;;;;4955524;28;19922;-77
2022/09/06 13:15:37;;;;;;;;;;;;;;;;;;4972887;28;19914;-76
2022/09/06 13:18:03;;;;;;;;;;;;;;;;;;4989815;28;19918;-77
2022/09/06 13:20:28;;;;;;;;;;;;;;;;;;4990055;28;19910;-76
2022/09/06 13:22:54;;;;;;;;;;;;;;;;;;4957975;28;19929;-77
2022/09/06 13:25:20;;;;;;;;;;;;;;;;;;4973638;28;20017;-76
2022/09/06 13:27:48;;;;;;;;;;;;;;;;;;4973583;28;20016;-77
2022/09/06 13:30:14;;;;;;;;;;;;;;;;;;4989516;28;19918;-77
2022/09/06 13:32:39;;;;;;;;;;;;;;;;;;4961525;28;19928;-77
2022/09/06 13:35:05;;;;;;;;;;;;;;;;;;4970781;28;19965;-77
2022/09/06 13:37:30;;;;;;;;;;;;;;;;;;4954359;28;20379;-77
2022/09/06 13:39:56;;;;;;;;;;;;;;;;;;4954212;28;19961;-76
2022/09/06 13:42:21;;;;;;;;;;;;;;;;;;4969644;28;20401;-77
2022/09/06 13:44:47;;;;;;;;;;;;;;;;;;4953509;28;20377;-76
2022/09/06 13:47:12;;;;;;;;;;;;;;;;;;4953590;29;19919;-77
2022/09/06 13:49:38;;;;;;;;;;;;;;;;;;4940727;28;19921;-77
2022/09/06 13:52:09;;;;;;;;;;;;;;;;;;4981403;28;20376;-89
2022/09/06 13:54:49;;;;;;;;;;;;;;;;;;4989142;28;20001;-84
2022/09/06 13:57:15;;;;;;;;;;;;;;;;;;4960325;28;19914;-82
2022/09/06 13:59:41;;;;;;;;;;;;;;;;;;4974234;28;20025;-83
2022/09/06 14:02:08;;;;;;;;;;;;;;;;;;4959358;28;19918;-84
2022/09/06 14:04:35;;;;;;;;;;;;;;;;;;4959691;28;19914;-83
2022/09/06 14:07:01;;;;;;;;;;;;;;;;;;4965770;28;19920;-84
2022/09/06 14:09:26;;;;;;;;;;;;;;;;;;4971342;28;20026;-81
2022/09/06 14:11:52;;;;;;;;;;;;;;;;;;4971349;28;19973;-83
2022/09/06 14:14:18;;;;;;;;;;;;;;;;;;4939670;29;19965;-84
2022/09/06 14:16:44;;;;;;;;;;;;;;;;;;4938969;29;19925;-83
2022/09/06 14:19:09;;;;;;;;;;;;;;;;;;4953979;28;20005;-82
2022/09/06 14:21:35;;;;;;;;;;;;;;;;;;4954493;28;19915;-83
2022/09/06 14:24:01;;;;;;;;;;;;;;;;;;4941051;28;20385;-81
2022/09/06 14:26:26;;;;;;;;;;;;;;;;;;4957786;28;20009;-83
2022/09/06 14:28:53;;;;;;;;;;;;;;;;;;4957628;28;19914;-83
2022/09/06 14:31:18;;;;;;;;;;;;;;;;;;4957792;28;19921;-81
2022/09/06 14:33:44;;;;;;;;;;;;;;;;;;4989709;28;19928;-83
2022/09/06 14:36:09;;;;;;;;;;;;;;;;;;4957617;28;19914;-82
2022/09/06 14:38:35;;;;;;;;;;;;;;;;;;4959773;28;19941;-78
2022/09/06 14:41:01;;;;;;;;;;;;;;;;;;4975177;28;19914;-81
2022/09/06 14:43:27;;;;;;;;;;;;;;;;;;4972434;28;19914;-81
2022/09/06 14:45:52;;;;;;;;;;;;;;;;;;4989429;28;19985;-81
2022/09/06 14:48:27;;;;;;;;;;;;;;;;;;4958716;28;19945;-79
2022/09/06 14:50:52;;;;;;;;;;;;;;;;;;4989870;28;20439;-84
2022/09/06 14:53:18;;;;;;;;;;;;;;;;;;4973953;28;19954;-83
2022/09/06 14:55:44;;;;;;;;;;;;;;;;;;4989643;28;19950;-84
2022/09/06 14:58:11;;;;;;;;;;;;;;;;;;4992500;28;19914;-84
2022/09/06 15:00:36;;;;;;;;;;;;;;;;;;4974488;28;19926;-83
2022/09/06 15:03:02;;;;;;;;;;;;;;;;;;4974042;28;19914;-84
2022/09/06 15:05:28;;;;;;;;;;;;;;;;;;4977812;28;19941;-82
2022/09/06 15:07:54;;;;;;;;;;;;;;;;;;4990316;28;19918;-83
2022/09/06 15:10:22;;;;;;;;;;;;;;;;;;4956634;28;20284;-83
2022/09/06 15:12:47;;;;;;;;;;;;;;;;;;4957058;28;19993;-86
2022/09/06 15:15:13;;;;;;;;;;;;;;;;;;4973150;28;20343;-85
2022/09/06 15:17:39;;;;;;;;;;;;;;;;;;4972184;28;19920;-82
2022/09/06 15:20:07;;;;;;;;;;;;;;;;;;4955907;28;19921;-83
2022/09/06 15:22:34;;;;;;;;;;;;;;;;;;4956288;28;19914;-83
2022/09/06 15:25:00;;;;;;;;;;;;;;;;;;4960807;28;19914;-83
2022/09/06 15:27:34;;;;;;;;;;;;;;;;;;4971886;28;19925;-84
2022/09/06 15:30:00;;;;;;;;;;;;;;;;;;4969411;28;19914;-85
2022/09/06 15:32:26;;;;;;;;;;;;;;;;;;4974491;28;20166;-86
2022/09/06 15:34:52;;;;;;;;;;;;;;;;;;4973263;28;19915;-82
2022/09/06 15:37:19;;;;;;;;;;;;;;;;;;4972224;28;19921;-86
2022/09/06 15:39:44;;;;;;;;;;;;;;;;;;4973541;28;19911;-85
2022/09/06 15:42:10;;;;;;;;;;;;;;;;;;4972265;28;19921;-83
2022/09/06 15:44:36;;;;;;;;;;;;;;;;;;4958139;28;19919;-84
2022/09/06 15:47:02;;;;;;;;;;;;;;;;;;4961479;28;19914;-83
2022/09/06 15:49:31;;;;;;;;;;;;;;;;;;4955951;28;19914;-78
2022/09/06 15:51:57;;;;;;;;;;;;;;;;;;4973013;28;19922;-80
2022/09/06 15:55:54;;;;;;;;;;;;;;;;;;4987672;28;19910;-82
2022/09/06 15:57:08;;;;;;;;;;;;;;;;;;4975065;28;20368;-80
2022/09/06 15:59:33;;;;;;;;;;;;;;;;;;4991392;28;19925;-79
2022/09/06 16:01:59;;;;;;;;;;;;;;;;;;4959310;28;19918;-80
2022/09/06 16:04:24;;;;;;;;;;;;;;;;;;4975140;28;20409;-80
2022/09/06 16:06:50;;;;;;;;;;;;;;;;;;4990361;28;19925;-79
2022/09/06 16:09:16;;;;;;;;;;;;;;;;;;4958691;28;19914;-78
2022/09/06 16:11:42;;;;;;;;;;;;;;;;;;4942790;28;19910;-80
2022/09/06 16:14:07;;;;;;;;;;;;;;;;;;4974748;28;19921;-79
2022/09/06 16:16:36;;;;;;;;;;;;;;;;;;4974608;28;19914;-79
2022/09/06 16:19:01;;;;;;;;;;;;;;;;;;4976023;28;19915;-81
2022/09/06 16:21:28;;;;;;;;;;;;;;;;;;4942404;28;19971;-79
2022/09/06 16:23:53;;;;;;;;;;;;;;;;;;4975960;28;19925;-79
2022/09/06 16:26:19;;;;;;;;;;;;;;;;;;4990523;28;19925;-78
2022/09/06 16:28:45;;;;;;;;;;;;;;;;;;4974634;28;19917;-78
2022/09/06 16:31:13;;;;;;;;;;;;;;;;;;4975385;28;20393;-79
2022/09/06 16:33:39;;;;;;;;;;;;;;;;;;4974683;28;19925;-79
2022/09/06 16:36:04;;;;;;;;;;;;;;;;;;4975693;28;20292;-80
2022/09/06 16:38:33;;;;;;;;;;;;;;;;;;4975136;28;19918;-81
2022/09/06 16:40:59;;;;;;;;;;;;;;;;;;4990662;28;20358;-79
2022/09/06 16:43:24;;;;;;;;;;;;;;;;;;4990500;28;19941;-80
2022/09/06 16:45:50;;;;;;;;;;;;;;;;;;4974351;28;20331;-78
2022/09/06 16:48:15;;;;;;;;;;;;;;;;;;4975594;28;20300;-80
2022/09/06 16:50:41;;;;;;;;;;;;;;;;;;4975571;28;19914;-79
2022/09/06 16:53:07;;;;;;;;;;;;;;;;;;4975659;28;20440;-79
2022/09/06 16:55:34;;;;;;;;;;;;;;;;;;4976456;28;19914;-78